Time;durP1;ratioP1;P1;durP2;ratioP2;P2;SDS_P1;SDS_P2;PMS_P1;PMS_P2;Temp;Humidity;BMP_temperature;BMP_pressure;BME280_temperature;BME280_humidity;BME280_pressure;Samples;Min_cycle;Max_cycle;Signal;HPM_P1;HPM_P2
2021/06/06 00:01:03;;;;;;;2.47;1.13;;;18.70;57.10;;;;;;5092639;28;20028;-57
2021/06/06 00:03:37;;;;;;;2.88;0.95;;;18.90;58.20;;;;;;5092677;28;20343;-52
2021/06/06 00:06:15;;;;;;;2.95;1.30;;;18.90;56.10;;;;;;5092075;28;20058;-54
2021/06/06 00:08:43;;;;;;;2.72;1.10;;;19.10;56.80;;;;;;5092367;28;20401;-57
2021/06/06 00:11:27;;;;;;;2.90;0.98;;;19.20;56.70;;;;;;5092490;28;20080;-54
2021/06/06 00:13:57;;;;;;;4.25;1.52;;;19.30;54.70;;;;;;5092150;28;20478;-57
2021/06/06 00:16:33;;;;;;;3.00;1.30;;;19.40;55.30;;;;;;5091521;28;20051;-57
2021/06/06 00:19:01;;;;;;;3.70;1.27;;;19.50;54.40;;;;;;5092001;28;20024;-58
2021/06/06 00:21:30;;;;;;;2.15;1.05;;;19.60;56.60;;;;;;5092202;28;20032;-51
2021/06/06 00:23:59;;;;;;;2.50;0.93;;;19.70;56.40;;;;;;5092349;28;20024;-60
2021/06/06 00:26:27;;;;;;;2.92;1.10;;;19.90;54.60;;;;;;5091867;28;20107;-61
2021/06/06 00:28:55;;;;;;;1.17;0.70;;;20.00;54.10;;;;;;5090596;28;20027;-58
2021/06/06 00:31:22;;;;;;;2.65;1.30;;;20.10;55.20;;;;;;5091959;28;20473;-57
2021/06/06 00:33:50;;;;;;;2.47;1.10;;;20.30;53.40;;;;;;5091477;28;20120;-54
2021/06/06 00:36:18;;;;;;;2.22;0.93;;;20.40;53.40;;;;;;5091693;28;20393;-59
2021/06/06 00:38:46;;;;;;;2.50;1.20;;;20.50;51.90;;;;;;5090067;28;20055;-58
2021/06/06 00:41:15;;;;;;;3.00;1.20;;;20.50;52.70;;;;;;5091692;28;20039;-58
2021/06/06 00:43:42;;;;;;;1.95;1.00;;;20.50;53.70;;;;;;5092128;28;20027;-59
2021/06/06 00:46:10;;;;;;;2.75;1.08;;;20.60;54.40;;;;;;5091600;28;20032;-62
2021/06/06 00:48:38;;;;;;;2.17;1.00;;;20.80;53.60;;;;;;5091474;28;20023;-50
2021/06/06 00:51:15;;;;;;;1.65;0.85;;;20.60;53.70;;;;;;5091899;28;20030;-46
2021/06/06 00:53:59;;;;;;;1.58;0.90;;;20.80;53.90;;;;;;5091595;28;20024;-56
2021/06/06 00:56:28;;;;;;;3.42;1.10;;;20.90;53.10;;;;;;5091121;28;20104;-57
2021/06/06 00:58:57;;;;;;;1.20;0.80;;;20.90;52.40;;;;;;5092821;28;20355;-57
2021/06/06 01:01:26;;;;;;;4.35;0.90;;;21.00;54.10;;;;;;5095546;28;20050;-60
2021/06/06 01:03:56;;;;;;;1.35;0.80;;;21.10;51.60;;;;;;5094189;28;20024;-59
2021/06/06 01:06:39;;;;;;;2.47;1.27;;;21.10;53.00;;;;;;5095437;28;20016;-56
2021/06/06 01:09:08;;;;;;;2.17;0.93;;;21.20;53.50;;;;;;5095434;28;20020;-63
2021/06/06 01:11:41;;;;;;;1.88;1.00;;;21.20;52.80;;;;;;5095100;28;20078;-61
2021/06/06 01:14:16;;;;;;;4.72;1.00;;;21.30;53.70;;;;;;5074981;28;20040;-53
2021/06/06 01:17:03;;;;;;;3.42;0.82;;;21.40;53.30;;;;;;5073259;28;20044;-56
2021/06/06 01:19:33;;;;;;;1.50;0.88;;;21.50;53.00;;;;;;5074815;28;20027;-58
2021/06/06 01:22:13;;;;;;;1.92;0.88;;;21.50;53.40;;;;;;5074976;28;20029;-62
2021/06/06 01:24:55;;;;;;;2.65;0.77;;;21.50;52.90;;;;;;5074446;28;20401;-63
2021/06/06 01:27:26;;;;;;;1.83;0.85;;;21.70;51.30;;;;;;5075370;28;20020;-60
2021/06/06 01:30:16;;;;;;;6.65;1.65;;;21.70;50.40;;;;;;5074978;28;20505;-60
2021/06/06 01:32:48;;;;;;;2.05;1.10;;;21.70;52.20;;;;;;5074464;28;20376;-59
2021/06/06 01:35:28;;;;;;;1.77;1.00;;;21.80;50.30;;;;;;5074091;28;20336;-60
2021/06/06 01:38:12;;;;;;;1.88;1.02;;;21.80;52.80;;;;;;5074226;28;20410;-60
2021/06/06 01:40:42;;;;;;;2.78;1.27;;;21.80;52.70;;;;;;5074407;28;20028;-62
2021/06/06 01:43:15;;;;;;;3.00;0.70;;;22.00;51.10;;;;;;5074766;28;20032;-61
2021/06/06 01:45:51;;;;;;;3.92;1.00;;;22.10;50.90;;;;;;5074542;28;20519;-61
2021/06/06 01:48:19;;;;;;;2.65;1.27;;;22.20;50.40;;;;;;5074616;28;20052;-60
2021/06/06 01:51:03;;;;;;;2.60;1.33;;;22.20;50.50;;;;;;5074322;28;20089;-59
2021/06/06 01:53:31;;;;;;;2.67;0.98;;;22.20;51.20;;;;;;5074122;28;20048;-59
2021/06/06 01:56:05;;;;;;;1.20;0.77;;;22.30;51.90;;;;;;5074108;28;20068;-59
2021/06/06 01:58:34;;;;;;;2.15;0.90;;;22.40;48.70;;;;;;5073004;28;20360;-55
2021/06/06 02:01:10;;;;;;;2.92;1.08;;;22.30;51.80;;;;;;5074399;28;20020;-58
2021/06/06 02:03:37;;;;;;;1.30;0.80;;;22.50;51.30;;;;;;5074058;28;20037;-56
2021/06/06 02:06:08;;;;;;;3.15;1.00;;;22.50;50.00;;;;;;5073850;28;20151;-55
2021/06/06 02:08:38;;;;;;;1.92;0.90;;;22.60;50.30;;;;;;5064855;28;20029;-46
2021/06/06 02:11:26;;;;;;;1.15;0.75;;;22.70;49.20;;;;;;5070254;28;20028;-56
2021/06/06 02:13:59;;;;;;;0.98;0.70;;;22.70;49.30;;;;;;5068194;28;20052;-48
2021/06/06 02:16:33;;;;;;;1.75;1.15;;;22.80;50.00;;;;;;5068893;28;20081;-46
2021/06/06 02:19:00;;;;;;;3.95;0.90;;;22.80;50.80;;;;;;5067317;28;20097;-52
2021/06/06 02:21:27;;;;;;;1.92;0.98;;;22.90;51.30;;;;;;5071040;28;20029;-49
2021/06/06 02:23:55;;;;;;;1.92;0.90;;;22.80;50.60;;;;;;5068928;28;20104;-48
2021/06/06 02:26:45;;;;;;;1.85;1.08;;;22.80;52.00;;;;;;5073218;28;20028;-45
2021/06/06 02:29:12;;;;;;;0.85;0.50;;;22.90;51.80;;;;;;5065628;28;20033;-52
2021/06/06 02:32:08;;;;;;;4.65;1.05;;;22.70;52.10;;;;;;5068793;28;20086;-48
2021/06/06 02:34:50;;;;;;;8.23;5.35;;;23.10;51.10;;;;;;5067691;28;20115;-55
2021/06/06 02:37:40;;;;;;;4.53;3.03;;;23.20;51.40;;;;;;5069552;28;20067;-54
2021/06/06 02:40:19;;;;;;;1.90;1.60;;;23.20;51.40;;;;;;5069856;28;20038;-55
2021/06/06 02:42:47;;;;;;;2.53;1.75;;;23.20;48.30;;;;;;5070578;28;20165;-47
2021/06/06 02:45:26;;;;;;;2.75;1.98;;;23.20;51.00;;;;;;5070656;28;20020;-45
2021/06/06 02:48:02;;;;;;;3.13;1.80;;;23.40;50.10;;;;;;5066709;28;20028;-58
2021/06/06 02:50:39;;;;;;;2.40;2.20;;;23.30;49.20;;;;;;5070295;28;20033;-55
2021/06/06 02:53:27;;;;;;;3.67;2.88;;;23.50;51.00;;;;;;5070075;28;20368;-52
2021/06/06 02:56:08;;;;;;;3.42;2.90;;;23.50;50.90;;;;;;5069173;28;20032;-55
2021/06/06 02:58:39;;;;;;;4.13;2.93;;;23.50;51.10;;;;;;5065698;28;20506;-54
2021/06/06 03:01:22;;;;;;;4.15;2.30;;;23.40;51.10;;;;;;5067256;28;20023;-59
2021/06/06 03:03:51;;;;;;;3.78;2.95;;;23.60;49.00;;;;;;5069637;28;20036;-57
2021/06/06 03:06:43;;;;;;;5.07;4.57;;;23.80;49.30;;;;;;5070091;28;20043;-50
2021/06/06 03:09:13;;;;;;;5.47;4.88;;;23.90;49.50;;;;;;5065346;28;20023;-60
2021/06/06 03:11:43;;;;;;;3.95;3.53;;;23.80;50.50;;;;;;5070079;28;20127;-50
2021/06/06 03:14:15;;;;;;;3.92;3.45;;;23.90;47.20;;;;;;5066853;28;20301;-47
2021/06/06 03:17:21;;;;;;;5.32;4.13;;;24.10;49.90;;;;;;5068454;28;20829;-55
2021/06/06 03:19:52;;;;;;;6.18;5.53;;;24.10;50.40;;;;;;5068342;28;20528;-53
2021/06/06 03:22:26;;;;;;;6.65;6.05;;;24.00;50.60;;;;;;5051652;28;20052;-58
2021/06/06 03:25:00;;;;;;;5.75;5.10;;;24.20;50.00;;;;;;5071467;28;20517;-61
2021/06/06 03:27:34;;;;;;;8.30;3.85;;;23.70;47.80;;;;;;5072426;28;20329;-61
2021/06/06 03:30:31;;;;;;;6.65;2.10;;;22.80;46.80;;;;;;5072028;28;20059;-62
2021/06/06 03:33:00;;;;;;;6.80;2.20;;;22.90;45.10;;;;;;5072277;28;20016;-62
2021/06/06 03:35:28;;;;;;;7.63;5.80;;;22.70;44.30;;;;;;5071757;28;20025;-63
2021/06/06 03:37:55;;;;;;;5.20;4.20;;;22.60;48.40;;;;;;5072240;28;20432;-62
2021/06/06 03:40:30;;;;;;;5.15;3.25;;;22.80;52.00;;;;;;5071574;28;20525;-59
2021/06/06 03:42:57;;;;;;;7.63;5.50;;;22.60;51.40;;;;;;5072328;28;20056;-61
2021/06/06 03:45:24;;;;;;;9.93;5.88;;;22.50;53.30;;;;;;5072452;28;20371;-62
2021/06/06 03:47:54;;;;;;;6.40;5.43;;;22.60;49.20;;;;;;5072038;28;20017;-57
2021/06/06 03:50:23;;;;;;;5.80;2.58;;;22.50;53.90;;;;;;5071749;28;20144;-58
2021/06/06 03:52:50;;;;;;;3.72;2.65;;;22.40;47.20;;;;;;5071522;28;20032;-59
2021/06/06 03:55:20;;;;;;;4.60;1.63;;;22.30;50.30;;;;;;5071995;28;20024;-62
2021/06/06 03:57:48;;;;;;;4.43;3.60;;;22.30;47.80;;;;;;5072280;28;20105;-62
2021/06/06 04:00:22;;;;;;;5.88;1.48;;;22.30;51.50;;;;;;5072016;28;20112;-58
2021/06/06 04:02:49;;;;;;;5.88;1.33;;;22.40;46.80;;;;;;5072825;28;20063;-62
2021/06/06 04:05:17;;;;;;;2.08;1.15;;;22.10;47.20;;;;;;5072422;28;20028;-61
2021/06/06 04:07:46;;;;;;;2.28;1.65;;;22.10;50.50;;;;;;5071501;28;20028;-64
2021/06/06 04:10:14;;;;;;;9.80;4.75;;;22.30;50.20;;;;;;5071624;28;20037;-60
2021/06/06 04:12:41;;;;;;;5.20;3.40;;;22.30;56.80;;;;;;5071590;28;20051;-65
2021/06/06 04:15:10;;;;;;;4.13;1.58;;;22.30;54.10;;;;;;5070118;28;20119;-53
2021/06/06 04:17:38;;;;;;;3.75;2.13;;;22.30;53.50;;;;;;5071837;28;20037;-63
2021/06/06 04:20:06;;;;;;;7.30;2.63;;;22.30;52.30;;;;;;5072060;28;20024;-58
2021/06/06 04:22:34;;;;;;;3.25;1.50;;;22.50;49.40;;;;;;5071629;28;20199;-61
2021/06/06 04:25:01;;;;;;;23.35;3.80;;;22.30;56.40;;;;;;5071250;28;20074;-59
2021/06/06 04:27:29;;;;;;;4.65;2.70;;;22.30;58.00;;;;;;5071656;28;20028;-59
2021/06/06 04:29:56;;;;;;;6.78;1.95;;;22.30;51.10;;;;;;5071683;28;20463;-60
2021/06/06 04:32:23;;;;;;;10.77;2.65;;;22.40;51.00;;;;;;5071356;28;20036;-57
2021/06/06 04:34:51;;;;;;;9.00;2.40;;;22.30;56.90;;;;;;5075435;28;20095;-59
2021/06/06 04:37:19;;;;;;;12.75;2.85;;;22.40;50.80;;;;;;5075334;28;20036;-60
2021/06/06 04:39:47;;;;;;;10.50;1.60;;;22.40;53.10;;;;;;5075395;28;20048;-66
2021/06/06 04:42:18;;;;;;;5.32;2.20;;;22.60;54.30;;;;;;5075477;28;20059;-61
2021/06/06 04:44:46;;;;;;;5.13;2.00;;;22.80;54.10;;;;;;5075226;28;20021;-61
2021/06/06 04:47:13;;;;;;;8.85;2.78;;;22.90;56.30;;;;;;5075235;28;20486;-60
2021/06/06 04:49:43;;;;;;;7.70;1.60;;;23.10;55.50;;;;;;5075184;28;20060;-61
2021/06/06 04:52:12;;;;;;;7.97;2.10;;;23.10;52.00;;;;;;5075131;28;20047;-61
2021/06/06 04:54:40;;;;;;;15.13;2.22;;;23.00;55.30;;;;;;5073306;28;20039;-56
2021/06/06 04:57:09;;;;;;;3.90;2.08;;;23.00;54.00;;;;;;5075160;28;20032;-58
2021/06/06 04:59:37;;;;;;;3.55;1.65;;;23.10;53.50;;;;;;5075379;28;20024;-53
2021/06/06 05:02:10;;;;;;;14.02;2.15;;;23.00;51.60;;;;;;5073485;28;20170;-59
2021/06/06 05:04:40;;;;;;;10.43;1.63;;;23.10;53.30;;;;;;5073615;28;20020;-55
2021/06/06 05:07:07;;;;;;;6.20;1.00;;;23.10;51.50;;;;;;5075185;28;20024;-52
2021/06/06 05:09:35;;;;;;;11.63;2.03;;;23.10;51.80;;;;;;5074471;28;20487;-60
2021/06/06 05:12:02;;;;;;;13.77;1.33;;;23.10;53.90;;;;;;5074258;28;20048;-57
2021/06/06 05:14:30;;;;;;;18.08;3.03;;;23.10;52.90;;;;;;5074378;28;20029;-57
2021/06/06 05:16:57;;;;;;;12.10;2.15;;;23.10;54.10;;;;;;5074423;28;20057;-52
2021/06/06 05:19:24;;;;;;;12.65;1.88;;;23.10;56.10;;;;;;5074930;28;20028;-56
2021/06/06 05:21:52;;;;;;;9.43;1.80;;;23.10;55.90;;;;;;5073422;28;20095;-56
2021/06/06 05:24:19;;;;;;;8.80;1.52;;;23.00;54.20;;;;;;5073402;28;20042;-53
2021/06/06 05:26:46;;;;;;;15.98;2.40;;;23.00;54.60;;;;;;5074422;28;20031;-51
2021/06/06 05:29:14;;;;;;;13.93;2.85;;;23.00;55.50;;;;;;5074819;28;20031;-58
2021/06/06 05:31:41;;;;;;;16.08;2.42;;;23.00;56.60;;;;;;5074480;28;20107;-62
2021/06/06 05:34:08;;;;;;;8.95;1.88;;;22.90;56.90;;;;;;5074532;28;20024;-49
2021/06/06 05:36:36;;;;;;;13.23;2.00;;;22.90;57.40;;;;;;5073986;28;20508;-60
2021/06/06 05:39:06;;;;;;;15.55;1.90;;;22.80;58.70;;;;;;5073018;28;20475;-62
2021/06/06 05:41:34;;;;;;;16.63;1.95;;;22.80;58.00;;;;;;5073958;28;20032;-59
2021/06/06 05:44:01;;;;;;;15.48;1.70;;;22.70;57.10;;;;;;5073811;28;20100;-60
2021/06/06 05:46:29;;;;;;;16.95;2.38;;;22.60;57.90;;;;;;5074547;28;20024;-59
2021/06/06 05:48:56;;;;;;;34.67;2.55;;;22.50;59.90;;;;;;5073572;28;20020;-60
2021/06/06 05:51:24;;;;;;;20.27;2.72;;;22.40;59.60;;;;;;5074225;28;20493;-53
2021/06/06 05:53:52;;;;;;;13.23;1.75;;;22.40;58.00;;;;;;5073804;28;20077;-56
2021/06/06 05:56:20;;;;;;;39.30;3.50;;;22.30;60.50;;;;;;5074012;28;20032;-58
2021/06/06 05:58:48;;;;;;;38.80;3.55;;;22.20;62.00;;;;;;5071980;28;20364;-66
2021/06/06 06:01:18;;;;;;;48.83;5.25;;;22.20;61.80;;;;;;5074075;28;20033;-51
2021/06/06 06:03:45;;;;;;;23.90;3.05;;;22.10;64.80;;;;;;5073986;28;20039;-52
2021/06/06 06:06:12;;;;;;;23.35;2.63;;;21.90;63.20;;;;;;5073801;28;20031;-49
2021/06/06 06:08:44;;;;;;;21.58;1.90;;;21.70;62.30;;;;;;5073903;28;20390;-61
2021/06/06 06:11:18;;;;;;;26.00;2.78;;;21.60;61.80;;;;;;5074029;28;20180;-55
2021/06/06 06:13:47;;;;;;;25.08;2.17;;;21.30;61.90;;;;;;5073562;28;20075;-58
2021/06/06 06:16:16;;;;;;;9.25;1.75;;;21.00;62.40;;;;;;5071739;28;20056;-62
2021/06/06 06:18:44;;;;;;;15.07;1.50;;;20.70;62.30;;;;;;5071947;28;20147;-56
2021/06/06 06:21:14;;;;;;;14.85;2.05;;;20.60;63.40;;;;;;5074307;28;20139;-64
2021/06/06 06:23:41;;;;;;;6.85;1.98;;;20.40;63.20;;;;;;5070784;28;20051;-62
2021/06/06 06:26:09;;;;;;;12.02;2.35;;;20.30;64.30;;;;;;5073867;28;20028;-53
2021/06/06 06:28:37;;;;;;;7.60;1.40;;;20.20;64.40;;;;;;5073438;28;20106;-61
2021/06/06 06:31:04;;;;;;;6.00;1.65;;;20.10;64.30;;;;;;5067248;28;20451;-58
2021/06/06 06:33:32;;;;;;;10.93;1.30;;;20.00;64.60;;;;;;5070159;28;20024;-59
2021/06/06 06:35:59;;;;;;;9.93;1.35;;;19.90;64.60;;;;;;5069100;28;20441;-56
2021/06/06 06:38:28;;;;;;;5.32;1.10;;;19.80;65.30;;;;;;5070820;28;20055;-51
2021/06/06 06:40:55;;;;;;;8.93;1.90;;;19.70;65.90;;;;;;5070020;28;20082;-52
2021/06/06 06:43:24;;;;;;;14.27;1.50;;;19.60;65.50;;;;;;5070680;28;20525;-47
2021/06/06 06:45:53;;;;;;;18.27;1.67;;;19.60;65.90;;;;;;5067031;28;20036;-50
2021/06/06 06:48:25;;;;;;;19.75;1.70;;;19.50;66.00;;;;;;5069987;28;20024;-51
2021/06/06 06:50:54;;;;;;;4.65;1.30;;;19.40;66.20;;;;;;5074417;28;20021;-54
2021/06/06 06:53:23;;;;;;;3.58;1.45;;;19.40;66.30;;;;;;5066639;28;20086;-54
2021/06/06 06:55:54;;;;;;;4.57;1.85;;;19.30;66.30;;;;;;5066107;28;20021;-50
2021/06/06 06:58:22;;;;;;;5.53;1.52;;;19.30;66.00;;;;;;5066695;28;20040;-48
2021/06/06 07:00:53;;;;;;;3.97;1.52;;;19.30;65.80;;;;;;5070548;28;20075;-62
2021/06/06 07:03:24;;;;;;;20.80;1.83;;;19.20;66.00;;;;;;5069815;28;20028;-55
2021/06/06 07:05:52;;;;;;;6.80;1.40;;;19.20;66.60;;;;;;5064987;28;20070;-49
2021/06/06 07:08:24;;;;;;;10.45;1.33;;;19.10;66.90;;;;;;5070169;28;20087;-60
2021/06/06 07:10:52;;;;;;;4.60;1.40;;;19.00;66.90;;;;;;5071012;28;20086;-55
2021/06/06 07:13:20;;;;;;;10.15;2.92;;;19.00;67.00;;;;;;5068719;28;20059;-56
2021/06/06 07:15:48;;;;;;;17.67;6.75;;;18.90;68.00;;;;;;5066983;28;20055;-49
2021/06/06 07:18:21;;;;;;;42.28;14.43;;;18.90;68.00;;;;;;5069861;28;20360;-47
2021/06/06 07:20:52;;;;;;;65.78;29.40;;;18.90;68.00;;;;;;5069737;28;20103;-51
2021/06/06 07:23:20;;;;;;;85.10;36.38;;;18.90;67.80;;;;;;5069971;28;20024;-48
2021/06/06 07:25:48;;;;;;;81.97;38.53;;;18.80;68.10;;;;;;5064914;28;20107;-52
2021/06/06 07:28:20;;;;;;;89.10;38.75;;;18.80;68.20;;;;;;5069934;28;20025;-51
2021/06/06 07:30:52;;;;;;;86.57;39.50;;;18.80;68.30;;;;;;5070240;28;20059;-50
2021/06/06 07:33:24;;;;;;;86.07;42.03;;;18.80;68.50;;;;;;5069544;28;20467;-50
2021/06/06 07:35:56;;;;;;;87.93;40.58;;;18.80;68.60;;;;;;5066496;28;20037;-51
2021/06/06 07:38:24;;;;;;;89.82;43.22;;;18.70;68.40;;;;;;5069194;28;20034;-50
2021/06/06 07:40:54;;;;;;;82.68;43.47;;;18.70;68.70;;;;;;5069607;28;20382;-44
2021/06/06 07:43:22;;;;;;;101.88;47.85;;;18.70;68.70;;;;;;5068747;28;20048;-50
2021/06/06 07:45:50;;;;;;;88.07;42.67;;;18.60;69.00;;;;;;5066203;28;20035;-45
2021/06/06 07:48:17;;;;;;;85.85;44.35;;;18.60;68.80;;;;;;5069118;28;20031;-47
2021/06/06 07:50:48;;;;;;;81.80;41.03;;;18.60;69.00;;;;;;5068760;28;20024;-52
2021/06/06 07:53:16;;;;;;;86.72;40.92;;;18.50;69.00;;;;;;5068187;28;20032;-49
2021/06/06 07:55:44;;;;;;;70.75;37.67;;;18.50;69.10;;;;;;5066212;28;20024;-52
2021/06/06 07:58:22;;;;;;;74.40;37.42;;;18.50;69.00;;;;;;5067704;28;20032;-50
2021/06/06 08:00:50;;;;;;;74.20;37.30;;;18.40;69.00;;;;;;5069499;28;20479;-48
2021/06/06 08:03:18;;;;;;;75.63;36.80;;;18.40;69.10;;;;;;5069283;28;20032;-57
2021/06/06 08:05:48;;;;;;;80.57;38.10;;;18.40;69.00;;;;;;5065876;28;20025;-52
2021/06/06 08:08:16;;;;;;;63.80;33.60;;;18.40;68.90;;;;;;5066190;28;20028;-52
2021/06/06 08:10:48;;;;;;;68.25;33.75;;;18.30;68.80;;;;;;5065652;28;20033;-48
2021/06/06 08:13:16;;;;;;;61.87;33.77;;;18.30;68.80;;;;;;5068889;28;20068;-47
2021/06/06 08:15:43;;;;;;;60.70;31.05;;;18.30;68.80;;;;;;5066372;28;20281;-61
2021/06/06 08:18:15;;;;;;;61.83;32.13;;;18.30;68.60;;;;;;5069238;28;20056;-52
2021/06/06 08:20:52;;;;;;;78.03;35.15;;;18.20;68.60;;;;;;5069202;28;20021;-58
2021/06/06 08:23:20;;;;;;;58.03;31.92;;;18.20;68.80;;;;;;5066604;28;20479;-53
2021/06/06 08:25:48;;;;;;;59.10;31.63;;;18.20;68.80;;;;;;5063452;28;20040;-56
2021/06/06 08:28:19;;;;;;;63.10;32.03;;;18.10;68.70;;;;;;5069086;28;20027;-58
2021/06/06 08:30:53;;;;;;;52.72;29.23;;;18.10;68.90;;;;;;5065336;28;20040;-54
2021/06/06 08:33:24;;;;;;;54.33;30.55;;;18.10;68.80;;;;;;5064542;28;20024;-56
2021/06/06 08:35:54;;;;;;;67.68;31.50;;;18.00;68.60;;;;;;5065660;28;20383;-51
2021/06/06 08:38:23;;;;;;;60.50;31.45;;;18.00;68.70;;;;;;5065774;28;20029;-54
2021/06/06 08:40:56;;;;;;;56.28;31.80;;;18.00;68.90;;;;;;5065423;28;20096;-54
2021/06/06 08:43:35;;;;;;;51.97;27.95;;;18.00;69.20;;;;;;5068169;28;20070;-49
2021/06/06 08:46:02;;;;;;;59.00;29.60;;;17.90;69.10;;;;;;5066635;28;20036;-53
2021/06/06 08:48:31;;;;;;;57.67;28.15;;;17.80;69.10;;;;;;5066171;28;20379;-58
2021/06/06 08:51:36;;;;;;;51.17;27.05;;;17.80;69.10;;;;;;5065829;28;20493;-58
2021/06/06 08:54:20;;;;;;;47.92;27.15;;;17.80;69.40;;;;;;5031703;28;20032;-54
2021/06/06 08:56:53;;;;;;;55.75;28.50;;;17.70;69.70;;;;;;5068317;28;20075;-51
2021/06/06 08:59:41;;;;;;;53.80;27.17;;;17.70;70.00;;;;;;5066796;28;20066;-55
2021/06/06 09:02:15;;;;;;;49.28;27.25;;;17.70;69.80;;;;;;5066626;28;20074;-49
2021/06/06 09:04:43;;;;;;;52.85;27.30;;;17.60;69.80;;;;;;5064858;28;20074;-52
2021/06/06 09:07:21;;;;;;;52.83;27.27;;;17.60;69.80;;;;;;5066678;28;20387;-51
2021/06/06 09:09:54;;;;;;;56.67;29.55;;;17.60;70.00;;;;;;5066240;28;20048;-45
2021/06/06 09:12:25;;;;;;;50.50;27.60;;;17.60;70.10;;;;;;5065671;28;20056;-51
2021/06/06 09:14:56;;;;;;;49.55;27.02;;;17.60;70.00;;;;;;5066062;28;20100;-45
2021/06/06 09:17:40;;;;;;;49.38;28.05;;;17.50;70.00;;;;;;5066904;28;20036;-46
2021/06/06 09:20:33;;;;;;;51.05;26.75;;;17.50;70.20;;;;;;5069768;28;20032;-47
2021/06/06 09:23:25;;;;;;;50.45;27.02;;;17.50;70.10;;;;;;5072609;28;20021;-46
2021/06/06 09:26:13;;;;;;;48.00;27.38;;;17.50;70.10;;;;;;5069611;28;20027;-51
2021/06/06 09:28:48;;;;;;;49.28;23.85;;;17.50;70.10;;;;;;5070457;28;20146;-44
2021/06/06 09:31:19;;;;;;;48.05;25.80;;;17.50;69.90;;;;;;5072522;28;20560;-54
2021/06/06 09:33:55;;;;;;;44.42;24.35;;;17.50;70.30;;;;;;5071069;28;20123;-42
2021/06/06 09:36:39;;;;;;;41.08;23.83;;;17.40;70.20;;;;;;5071090;28;20758;-49
2021/06/06 09:39:20;;;;;;;41.35;24.42;;;17.40;70.10;;;;;;5072223;28;20104;-49
2021/06/06 09:41:52;;;;;;;43.45;23.75;;;17.40;70.10;;;;;;5072277;28;20028;-48
2021/06/06 09:44:29;;;;;;;43.42;23.25;;;17.40;70.10;;;;;;5068515;28;20044;-47
2021/06/06 09:47:12;;;;;;;39.00;22.95;;;17.40;70.20;;;;;;5072032;28;20090;-45
2021/06/06 09:49:49;;;;;;;41.05;23.25;;;17.40;70.10;;;;;;5068802;28;20045;-46
2021/06/06 09:52:19;;;;;;;41.40;22.30;;;17.30;70.20;;;;;;5071896;28;20078;-44
2021/06/06 09:54:50;;;;;;;39.53;22.80;;;17.30;70.10;;;;;;5068762;28;20506;-46
2021/06/06 09:57:27;;;;;;;38.25;21.88;;;17.30;70.20;;;;;;5072500;28;20033;-46
2021/06/06 10:00:08;;;;;;;38.10;21.77;;;17.30;70.20;;;;;;5072527;28;20124;-50
2021/06/06 10:02:45;;;;;;;39.95;21.23;;;17.30;70.20;;;;;;5071487;28;20028;-47
2021/06/06 10:05:23;;;;;;;37.72;22.02;;;17.30;70.20;;;;;;5068407;28;20021;-52
2021/06/06 10:08:02;;;;;;;37.28;21.35;;;17.20;70.20;;;;;;5068806;28;20374;-44
2021/06/06 10:10:37;;;;;;;34.15;21.65;;;17.20;70.20;;;;;;5070972;28;20106;-46
2021/06/06 10:13:11;;;;;;;34.83;19.90;;;17.20;70.20;;;;;;5071387;28;20075;-54
2021/06/06 10:15:58;;;;;;;31.73;19.20;;;17.20;70.30;;;;;;5068365;28;20040;-52
2021/06/06 10:18:56;;;;;;;37.50;20.42;;;17.20;70.40;;;;;;5069051;28;20029;-48
2021/06/06 10:21:25;;;;;;;37.15;20.45;;;17.10;70.50;;;;;;5036076;28;20044;-49
2021/06/06 10:23:59;;;;;;;37.45;19.95;;;17.10;70.50;;;;;;5069196;28;20544;-44
2021/06/06 10:26:37;;;;;;;29.23;17.42;;;17.10;71.10;;;;;;5072409;28;20538;-48
2021/06/06 10:29:27;;;;;;;31.23;18.02;;;17.10;70.50;;;;;;5070086;28;20031;-47
2021/06/06 10:32:01;;;;;;;30.63;18.15;;;17.10;70.50;;;;;;5069726;28;20022;-48
2021/06/06 10:34:54;;;;;;;28.75;17.88;;;17.00;70.50;;;;;;5067500;28;20028;-42
2021/06/06 10:37:22;;;;;;;29.73;17.80;;;17.10;70.60;;;;;;5051800;28;20047;-49
2021/06/06 10:40:13;;;;;;;29.95;17.92;;;17.00;70.40;;;;;;5068502;28;20021;-52
2021/06/06 10:42:57;;;;;;;29.67;17.77;;;17.00;70.60;;;;;;5069039;28;20032;-49
2021/06/06 10:45:43;;;;;;;31.27;19.10;;;17.00;70.70;;;;;;5064489;28;20028;-54
2021/06/06 10:48:21;;;;;;;27.67;17.13;;;16.90;70.60;;;;;;5073332;28;20034;-50
2021/06/06 10:51:29;;;;;;;28.90;17.33;;;17.00;70.60;;;;;;5073552;28;20031;-56
2021/06/06 10:54:03;;;;;;;27.83;16.88;;;16.90;70.60;;;;;;5061626;28;20111;-52
2021/06/06 10:56:57;;;;;;;24.23;15.85;;;16.90;70.60;;;;;;5071931;28;20546;-45
2021/06/06 10:59:55;;;;;;;25.50;16.25;;;16.90;70.60;;;;;;5061518;28;20032;-54
2021/06/06 11:02:40;;;;;;;30.08;16.63;;;16.90;70.80;;;;;;5046291;28;20044;-50
2021/06/06 11:05:27;;;;;;;27.45;16.50;;;16.80;70.80;;;;;;5053120;28;20407;-45
2021/06/06 11:07:54;;;;;;;24.27;14.55;;;16.80;70.90;;;;;;5051603;28;20100;-53
2021/06/06 11:10:38;;;;;;;33.40;17.23;;;16.80;71.10;;;;;;5053131;28;20132;-47
2021/06/06 11:13:31;;;;;;;20.55;14.40;;;16.80;71.20;;;;;;5068202;28;20407;-57
2021/06/06 11:16:06;;;;;;;22.73;14.23;;;16.70;71.30;;;;;;5052335;28;20021;-52
2021/06/06 11:18:54;;;;;;;24.40;14.50;;;16.70;71.30;;;;;;5052555;28;20392;-59
2021/06/06 11:21:48;;;;;;;22.75;14.82;;;16.70;71.40;;;;;;5052982;28;20032;-62
2021/06/06 11:24:39;;;;;;;25.77;15.35;;;16.70;71.40;;;;;;5052884;28;20470;-59
2021/06/06 11:27:16;;;;;;;21.88;13.02;;;16.60;71.30;;;;;;5052018;28;20027;-54
2021/06/06 11:29:58;;;;;;;26.52;14.45;;;16.60;71.40;;;;;;5052418;28;20056;-59
2021/06/06 11:32:34;;;;;;;24.50;14.73;;;16.60;71.40;;;;;;5052748;28;20101;-55
2021/06/06 11:35:25;;;;;;;23.05;14.25;;;16.50;71.40;;;;;;5068342;28;20025;-56
2021/06/06 11:37:59;;;;;;;23.30;14.00;;;16.50;71.50;;;;;;5052772;28;20041;-55
2021/06/06 11:40:32;;;;;;;23.27;13.20;;;16.50;71.60;;;;;;5052233;28;20025;-62
2021/06/06 11:43:10;;;;;;;22.63;14.05;;;16.50;71.70;;;;;;5052358;28;20025;-61
2021/06/06 11:45:42;;;;;;;21.80;13.10;;;16.50;71.80;;;;;;5051841;28;20032;-61
2021/06/06 11:48:51;;;;;;;19.33;13.05;;;16.50;71.80;;;;;;5051320;28;20036;-58
2021/06/06 11:51:29;;;;;;;21.35;12.25;;;16.40;71.90;;;;;;5009272;28;20160;-59
2021/06/06 11:54:01;;;;;;;24.90;13.13;;;16.40;72.30;;;;;;5047051;28;20510;-54
2021/06/06 11:56:34;;;;;;;18.73;12.40;;;16.40;72.30;;;;;;5051687;28;20468;-55
2021/06/06 11:59:42;;;;;;;18.38;12.25;;;16.40;72.40;;;;;;5052644;28;20033;-61
2021/06/06 12:02:22;;;;;;;19.45;11.93;;;16.40;72.30;;;;;;5030101;28;20029;-57
2021/06/06 12:04:49;;;;;;;20.75;12.23;;;16.40;72.40;;;;;;5030477;28;20049;-59
2021/06/06 12:07:29;;;;;;;15.40;10.85;;;16.30;72.30;;;;;;5042758;28;20103;-52
2021/06/06 12:09:59;;;;;;;19.83;12.05;;;16.30;72.40;;;;;;5052000;28;20021;-60
2021/06/06 12:12:32;;;;;;;22.27;12.00;;;16.30;72.50;;;;;;5051915;28;20057;-59
2021/06/06 12:15:08;;;;;;;17.48;11.80;;;16.20;72.50;;;;;;5052441;28;20430;-52
2021/06/06 12:17:37;;;;;;;21.90;12.05;;;16.20;72.60;;;;;;5052301;28;20028;-62
2021/06/06 12:20:11;;;;;;;17.33;10.95;;;16.20;72.80;;;;;;5052508;28;20029;-59
2021/06/06 12:22:41;;;;;;;17.42;11.45;;;16.10;72.80;;;;;;5052074;28;20082;-62
2021/06/06 12:25:17;;;;;;;18.10;12.23;;;16.20;73.10;;;;;;5052202;28;20032;-60
2021/06/06 12:28:18;;;;;;;;;;;;;;;;;;;;;
2021/06/06 12:30:51;;;;;;;15.88;11.10;;;16.10;73.50;;;;;;5049926;28;20037;-61
2021/06/06 12:33:26;;;;;;;20.20;10.73;;;16.10;73.80;;;;;;5052634;28;20388;-60
2021/06/06 12:35:59;;;;;;;21.02;11.80;;;16.10;73.90;;;;;;5067728;28;20028;-63
2021/06/06 12:38:28;;;;;;;20.20;11.18;;;16.00;74.00;;;;;;5052162;28;20064;-55
2021/06/06 12:40:55;;;;;;;15.55;11.38;;;16.00;74.10;;;;;;5052274;28;20109;-46
2021/06/06 12:43:26;;;;;;;18.17;10.93;;;16.00;74.20;;;;;;5052359;28;20025;-47
2021/06/06 12:46:00;;;;;;;16.88;11.27;;;16.00;74.30;;;;;;5052216;28;20079;-51
2021/06/06 12:48:32;;;;;;;18.00;11.55;;;16.00;74.40;;;;;;5052149;28;20029;-54
2021/06/06 12:51:12;;;;;;;20.02;11.27;;;15.90;74.40;;;;;;5052471;28;20491;-63
2021/06/06 12:53:39;;;;;;;18.67;11.27;;;15.90;74.40;;;;;;5053074;28;20025;-60
2021/06/06 12:56:25;;;;;;;18.50;10.80;;;15.90;74.50;;;;;;5054902;28;20029;-52
2021/06/06 12:59:04;;;;;;;17.98;10.73;;;15.90;74.70;;;;;;5056481;28;20099;-49
2021/06/06 13:01:32;;;;;;;16.27;10.80;;;15.80;74.80;;;;;;5071191;28;20017;-51
2021/06/06 13:04:19;;;;;;;15.05;9.73;;;15.80;74.80;;;;;;5055802;28;20365;-55
2021/06/06 13:06:47;;;;;;;15.75;10.55;;;15.80;74.80;;;;;;5055744;28;20021;-57
2021/06/06 13:09:52;;;;;;;17.25;10.45;;;15.80;75.00;;;;;;5055927;28;20032;-52
2021/06/06 13:12:40;;;;;;;18.58;10.70;;;15.70;74.90;;;;;;5054318;28;20091;-57